CHTM7: Spring River at Carthage, MO

                                SHEF ID:       CHTM7     Spring River at Carthage, MO
STATION TYPE:

PRECIP STAGE RIV-FLOW
in ft cfs
Ccp-Rev Ccp-Rev Ccp-Rev
(America/Chicago)
04/29 00:00 0.00 4.93 1249
04/29 01:00 0.00 5.09 1364
04/29 02:00 0.00 5.20 1443
04/29 03:00 0.00 5.25 1480
04/29 04:00 0.00 5.25 1480
04/29 05:00 0.00 5.19 1436
04/29 06:00 0.00 5.14 1400
04/29 07:00 0.00 5.09 1364
04/29 08:00 0.00 5.08 1357
04/29 09:00 0.00 5.05 1336
04/29 10:00 0.00 5.01 1307
04/29 11:00 0.00 4.99 1293
04/29 12:00 0.00 4.94 1257
04/29 13:00 0.00 4.90 1228
04/29 14:00 0.00 4.88 1213
04/29 15:00 0.00 4.84 1185
04/29 16:00 0.00 4.83 1178
04/29 17:00 0.00 4.82 1170
04/29 18:00 0.00 4.79 1148
04/29 19:00 0.00 4.78 1141
04/29 20:00 0.00 4.75 1120
04/29 21:00 0.00 4.71 1091
04/29 22:00 0.00 4.70 1084
04/29 23:00 0.00 4.67 1062
Data processed at Thu 30Apr2026 04:52 GMT

NOTICE: If you are parsing this page

Please convert to using our Data API. Starting early 2026 we will be migrating to: https://water.usace.army.mil with modern pages rendered in JavaScript. When this migration completes you will no longer be able to scrape this page! CWMSDataAPI (CDA)

Timeseries IDs (TSIDs)

TSIDs used from left to right in the data table
CART.Precip-Inc.Total.1Hour.1Hour.Ccp-Rev
CART.Stage.Inst.1Hour.0.Ccp-Rev
CART.Flow.Inst.1Hour.0.Ccp-Rev

                            

All information presented herein is the property of the government of the United States of America and may be revised or deleted at any time without prior notice. Dissemination of this information without the expressed written consent of the Public Affairs Office, Tulsa District U.S. Army Corps of Engineers is strictly prohibited. These data are gathered electronically and, as presented, have NOT undergone any form of quality control. These data are NOT guaranteed to be valid or correct.